PDT,Max TemperatureF,Mean TemperatureF,Min TemperatureF,Max Dew PointF,MeanDew PointF,Min DewpointF,Max Humidity, Mean Humidity, Min Humidity, Max Sea Level PressureIn, Mean Sea Level PressureIn, Min Sea Level PressureIn, Max VisibilityMiles, Mean VisibilityMiles, Min VisibilityMiles, Max Wind SpeedMPH, Mean Wind SpeedMPH, Max Gust SpeedMPH,PrecipitationIn, CloudCover, Events, WindDirDegrees
2013-10-1,64,59,54,56,51,44,87,72,57,30.09,30.04,29.97,10,10,9,15,7,20,0.00,2,,229
2013-10-2,63,55,47,63,48,41,89,70,51,30.09,30.02,29.95,10,8,0,14,6,18,0.00,3,Fog,165
2013-10-3,64,55,45,48,44,38,86,67,48,30.10,30.05,30.00,10,10,10,20,6,25,0.00,0,,244
2013-10-4,80,65,49,38,32,28,59,37,15,30.12,30.05,30.00,10,10,10,13,7,15,0.00,0,,70
2013-10-5,86,72,57,32,24,21,35,23,10,30.20,30.15,30.12,10,10,10,10,6,24,0.00,0,,55
2013-10-6,85,71,57,40,29,21,37,26,15,30.13,30.09,30.04,10,10,10,13,5,23,0.00,0,,30
2013-10-7,76,63,50,48,37,25,77,49,21,30.04,30.00,29.96,10,10,10,13,3,16,0.00,0,,279
2013-10-8,65,58,51,50,49,44,89,75,60,29.97,29.91,29.82,10,9,7,17,7,21,0.00,4,,209
2013-10-9,61,56,51,49,47,41,83,69,55,29.84,29.75,29.69,10,9,7,17,7,23,0.00,5,,250
2013-10-10,65,55,44,50,47,41,89,73,56,30.07,29.97,29.85,10,10,8,20,6,26,0.00,2,,163
2013-10-11,60,54,47,49,48,46,89,81,72,30.14,30.07,30.02,10,10,5,12,4,15,0.00,5,,226
2013-10-12,61,54,47,50,47,44,96,79,62,30.07,30.03,29.99,10,7,2,12,5,14,0.00,4,,248
2013-10-13,66,59,51,52,49,43,93,71,48,30.11,30.04,29.97,10,10,6,10,4,12,0.00,3,,237
2013-10-14,74,63,51,48,41,37,71,53,34,30.13,30.08,30.04,10,10,10,10,5,38,0.00,1,,61
2013-10-15,74,63,52,43,37,33,59,43,27,30.06,30.02,29.98,10,10,10,10,4,13,0.00,1,,87
2013-10-16,77,66,55,52,40,33,58,43,27,30.10,30.07,29.99,10,10,10,13,5,15,0.00,0,,79
2013-10-17,75,65,54,49,36,30,57,42,27,30.11,30.06,30.02,10,10,10,8,2,10,0.00,0,,47
2013-10-18,64,54,43,51,47,36,100,76,52,30.09,30.04,30.01,10,6,0,8,2,12,0.00,3,Fog,49
2013-10-19,63,54,45,52,48,44,100,81,62,30.11,30.07,30.03,10,3,0,8,3,12,0.00,4,Fog,2
2013-10-20,58,51,43,50,47,42,100,86,72,30.09,30.02,29.95,10,4,0,9,3,12,0.00,7,Fog,48
2013-10-21,60,53,46,50,48,45,100,85,69,30.06,30.01,29.97,10,4,0,13,5,15,0.00,7,Fog,98
2013-10-22,62,54,45,50,48,45,100,84,67,30.07,30.02,29.97,10,4,0,12,3,15,0.00,6,Fog,66
2013-10-23,60,54,48,50,49,46,100,89,77,30.04,29.99,29.95,10,4,0,13,4,15,0.00,8,Fog,189
2013-10-24,56,53,50,52,49,47,100,89,77,30.17,30.09,30.02,10,7,2,8,3,10,0.00,8,,256
2013-10-25,60,53,46,51,47,44,93,83,72,30.20,30.16,30.12,10,8,2,9,4,18,0.00,2,,56
2013-10-26,60,53,46,52,49,43,100,88,75,30.19,30.13,30.05,10,7,0,10,3,13,0.00,3,Fog,272
2013-10-27,57,53,49,52,49,46,100,86,72,30.10,29.96,29.82,10,9,2,21,7,26,T,8,Rain,224
2013-10-28,58,55,52,52,49,46,89,81,72,29.93,29.81,29.75,10,8,1,24,9,32,0.39,8,Rain,239
2013-10-29,63,56,48,51,48,45,96,78,60,30.10,30.01,29.91,10,10,2,14,5,17,0.03,5,Rain,163
2013-10-30,61,53,44,50,45,41,92,80,67,30.18,30.14,30.10,10,10,10,9,4,13,0.00,0,,65
2013-10-31,70,58,45,49,45,42,92,65,37,30.19,30.15,30.12,10,10,10,8,4,,0.00,0,,73